Time;durP1;ratioP1;P1;durP2;ratioP2;P2;SDS_P1;SDS_P2;PMS_P1;PMS_P2;Temp;Humidity;BMP_temperature;BMP_pressure;BME280_temperature;BME280_humidity;BME280_pressure;Samples;Min_cycle;Max_cycle;Signal;HPM_P1;HPM_P2
2022/10/20 00:01:58;;;;;;;7.72;6.97;;;11.50;93.10;;;;;;5109930;28;20420;-65
2022/10/20 00:04:25;;;;;;;8.98;8.07;;;11.60;93.20;;;;;;5097258;28;20437;-65
2022/10/20 00:06:52;;;;;;;8.32;7.53;;;11.60;93.20;;;;;;5107497;28;20412;-66
2022/10/20 00:09:19;;;;;;;8.45;7.65;;;11.50;93.30;;;;;;5108149;28;20420;-66
2022/10/20 00:11:47;;;;;;;8.45;7.57;;;11.60;93.30;;;;;;5107066;28;20950;-66
2022/10/20 00:14:13;;;;;;;8.53;7.73;;;11.50;93.20;;;;;;5101235;27;20472;-66
2022/10/20 00:16:41;;;;;;;8.37;7.57;;;11.60;93.20;;;;;;5109296;28;20427;-66
2022/10/20 00:19:07;;;;;;;9.88;8.05;;;11.50;93.20;;;;;;5110177;28;20798;-66
2022/10/20 00:21:34;;;;;;;8.95;8.05;;;11.50;93.30;;;;;;5109995;28;20778;-65
2022/10/20 00:24:02;;;;;;;8.50;7.60;;;11.50;93.40;;;;;;5108787;28;20435;-65
2022/10/20 00:26:30;;;;;;;9.50;7.97;;;11.50;93.40;;;;;;5108933;28;20432;-64
2022/10/20 00:29:00;;;;;;;8.60;7.20;;;11.40;93.20;;;;;;5109618;28;20424;-65
2022/10/20 00:31:27;;;;;;;9.40;8.20;;;11.40;93.20;;;;;;5124038;27;20506;-65
2022/10/20 00:33:54;;;;;;;9.20;8.30;;;11.40;93.70;;;;;;5109593;28;20455;-65
2022/10/20 00:36:22;;;;;;;8.88;7.97;;;11.40;93.30;;;;;;5109513;28;20427;-65
2022/10/20 00:38:49;;;;;;;9.13;8.32;;;11.30;93.30;;;;;;5109523;28;20416;-65
2022/10/20 00:41:17;;;;;;;8.68;7.90;;;11.30;93.40;;;;;;5108124;28;20454;-65
2022/10/20 00:43:47;;;;;;;8.50;7.65;;;11.30;93.30;;;;;;5100879;28;20427;-65
2022/10/20 00:46:17;;;;;;;9.43;8.43;;;11.30;93.40;;;;;;5109644;28;20408;-66
2022/10/20 00:48:48;;;;;;;9.07;8.18;;;11.20;93.50;;;;;;5109367;28;20896;-65
2022/10/20 00:51:16;;;;;;;9.85;8.90;;;11.20;93.40;;;;;;5109377;28;20782;-64
2022/10/20 00:53:44;;;;;;;9.80;8.88;;;11.10;93.50;;;;;;5109101;28;20408;-66
2022/10/20 00:56:11;;;;;;;9.32;8.18;;;11.10;93.60;;;;;;5103106;28;20462;-65
2022/10/20 00:58:39;;;;;;;9.20;8.40;;;11.10;93.80;;;;;;5104192;28;20495;-66
2022/10/20 01:01:06;;;;;;;9.43;8.48;;;11.10;93.70;;;;;;5103360;28;20419;-66
2022/10/20 01:03:39;;;;;;;9.17;8.27;;;11.00;93.70;;;;;;5108910;28;20427;-65
2022/10/20 01:06:06;;;;;;;9.93;8.45;;;11.00;93.80;;;;;;5109038;28;20777;-66
2022/10/20 01:08:33;;;;;;;9.10;8.30;;;11.00;93.90;;;;;;5107082;28;20417;-67
2022/10/20 01:11:13;;;;;;;8.82;8.13;;;11.00;93.90;;;;;;5104345;28;20425;-65
2022/10/20 01:13:52;;;;;;;10.23;8.73;;;11.00;93.80;;;;;;5099786;28;20416;-64
2022/10/20 01:16:25;;;;;;;9.38;8.48;;;11.00;93.90;;;;;;5111126;28;20419;-65
2022/10/20 01:19:05;;;;;;;10.10;9.20;;;11.00;94.00;;;;;;5112026;28;20411;-66
2022/10/20 01:21:53;;;;;;;9.30;8.40;;;10.90;94.10;;;;;;5109890;28;20423;-65
2022/10/20 01:24:42;;;;;;;8.80;7.90;;;10.90;94.20;;;;;;5098712;28;20467;-65
2022/10/20 01:27:31;;;;;;;9.00;8.10;;;10.90;94.20;;;;;;5100220;28;20412;-64
2022/10/20 01:30:05;;;;;;;9.90;9.00;;;10.90;94.20;;;;;;5108786;28;20432;-64
2022/10/20 01:32:43;;;;;;;8.75;7.95;;;10.90;94.20;;;;;;5108069;28;20695;-68
2022/10/20 01:35:14;;;;;;;9.43;8.30;;;10.90;94.20;;;;;;5107540;22;20642;-71
2022/10/20 01:37:47;;;;;;;9.38;8.48;;;10.90;94.10;;;;;;5064642;28;20427;-71
2022/10/20 01:40:21;;;;;;;9.20;8.32;;;11.00;94.00;;;;;;5054767;28;20435;-72
2022/10/20 01:42:52;;;;;;;10.18;8.68;;;10.90;94.00;;;;;;5054144;28;20415;-71
2022/10/20 01:45:23;;;;;;;8.90;8.00;;;11.00;93.90;;;;;;5067617;28;20419;-70
2022/10/20 01:47:51;;;;;;;8.80;8.00;;;11.00;93.80;;;;;;5050632;28;20417;-72
2022/10/20 01:50:20;;;;;;;9.85;8.10;;;11.00;93.60;;;;;;5047606;28;20787;-70
2022/10/20 01:52:46;;;;;;;9.43;8.50;;;11.10;93.50;;;;;;5047400;28;20425;-71
2022/10/20 01:55:15;;;;;;;10.20;8.50;;;11.10;93.50;;;;;;5046837;28;21124;-73
2022/10/20 01:57:58;;;;;;;10.18;8.60;;;11.00;93.60;;;;;;5047955;28;20429;-71
2022/10/20 02:00:25;;;;;;;9.13;8.23;;;11.00;93.60;;;;;;5048698;28;20417;-71
2022/10/20 02:03:05;;;;;;;9.65;8.65;;;11.00;93.70;;;;;;5057113;28;20417;-70
2022/10/20 02:05:50;;;;;;;9.23;8.32;;;11.00;93.90;;;;;;5049838;28;20419;-71
2022/10/20 02:08:22;;;;;;;9.23;8.32;;;11.00;93.50;;;;;;5059180;28;20429;-72
2022/10/20 02:10:52;;;;;;;9.30;8.40;;;11.00;93.30;;;;;;5044145;28;20444;-72
2022/10/20 02:13:21;;;;;;;10.85;7.93;;;11.00;93.40;;;;;;5048435;28;20429;-72
2022/10/20 02:15:53;;;;;;;9.10;8.20;;;11.00;93.30;;;;;;5058927;28;20425;-73
2022/10/20 02:18:24;;;;;;;9.20;8.40;;;11.10;93.30;;;;;;5047411;28;20645;-70
2022/10/20 02:20:54;;;;;;;9.15;8.25;;;11.10;93.10;;;;;;5051232;28;20417;-72
2022/10/20 02:23:21;;;;;;;8.90;8.02;;;11.10;92.70;;;;;;5045845;28;20784;-72
2022/10/20 02:25:51;;;;;;;8.85;7.97;;;11.10;92.50;;;;;;5046723;28;20417;-70
2022/10/20 02:28:21;;;;;;;9.43;8.50;;;11.20;92.50;;;;;;5051302;28;21031;-70
2022/10/20 02:30:48;;;;;;;8.52;7.78;;;11.20;92.40;;;;;;5067467;28;20424;-72
2022/10/20 02:33:16;;;;;;;8.23;7.43;;;11.30;92.10;;;;;;5054383;28;20423;-72
2022/10/20 02:35:51;;;;;;;8.82;7.90;;;11.30;91.90;;;;;;5066344;28;20444;-70
2022/10/20 02:38:17;;;;;;;8.20;7.30;;;11.30;91.80;;;;;;5053384;28;20429;-71
2022/10/20 02:40:45;;;;;;;8.10;7.40;;;11.30;91.80;;;;;;5053669;28;20413;-71
2022/10/20 02:43:11;;;;;;;9.50;7.45;;;11.30;91.70;;;;;;5040750;28;20409;-71
2022/10/20 02:45:39;;;;;;;8.70;7.90;;;11.30;91.60;;;;;;5067306;28;20426;-70
2022/10/20 02:48:08;;;;;;;8.80;8.00;;;11.30;91.50;;;;;;5061224;28;20416;-70
2022/10/20 02:50:34;;;;;;;8.27;7.60;;;11.30;91.40;;;;;;5059012;28;21278;-72
2022/10/20 02:53:01;;;;;;;10.70;7.80;;;11.30;91.30;;;;;;5056846;28;20431;-70
2022/10/20 02:55:28;;;;;;;8.02;7.32;;;11.40;91.40;;;;;;5053422;28;20424;-70
2022/10/20 02:57:55;;;;;;;8.07;7.38;;;11.40;91.20;;;;;;5053594;28;20496;-72
2022/10/20 03:00:22;;;;;;;8.88;7.78;;;11.40;91.20;;;;;;5053833;28;20417;-72
2022/10/20 03:02:51;;;;;;;9.77;7.90;;;11.40;91.30;;;;;;5061743;28;20904;-71
2022/10/20 03:05:18;;;;;;;7.85;7.03;;;11.40;91.30;;;;;;5059577;28;20433;-70
2022/10/20 03:07:44;;;;;;;9.07;7.50;;;11.40;91.20;;;;;;5058804;28;20417;-71
2022/10/20 03:10:11;;;;;;;7.57;6.88;;;11.40;91.20;;;;;;5054949;28;20431;-70
2022/10/20 03:12:38;;;;;;;7.50;6.90;;;11.40;91.00;;;;;;5054342;28;20428;-71
2022/10/20 03:15:05;;;;;;;7.90;7.22;;;11.40;91.10;;;;;;5061485;28;20914;-71
2022/10/20 03:17:32;;;;;;;9.20;7.90;;;11.40;91.20;;;;;;5054143;28;20428;-71
2022/10/20 03:20:01;;;;;;;8.57;7.68;;;11.40;91.20;;;;;;5054006;28;20430;-71
2022/10/20 03:22:28;;;;;;;7.97;7.28;;;11.40;91.10;;;;;;5057080;28;20893;-71
2022/10/20 03:24:54;;;;;;;8.20;7.40;;;11.40;91.20;;;;;;5052879;28;20425;-71
2022/10/20 03:27:21;;;;;;;8.50;7.70;;;11.30;91.20;;;;;;5053378;28;20433;-72
2022/10/20 03:29:48;;;;;;;8.13;7.32;;;11.30;91.10;;;;;;5068202;28;20930;-71
2022/10/20 03:32:15;;;;;;;7.97;7.30;;;11.30;91.10;;;;;;5054928;28;20497;-72
2022/10/20 03:34:41;;;;;;;8.23;7.43;;;11.30;91.10;;;;;;5053471;28;20976;-71
2022/10/20 03:37:09;;;;;;;7.50;6.80;;;11.40;90.90;;;;;;5062115;28;20433;-71
2022/10/20 03:39:36;;;;;;;7.90;7.10;;;11.40;90.70;;;;;;5057641;28;20427;-70
2022/10/20 03:42:03;;;;;;;8.35;7.10;;;11.40;90.30;;;;;;5055675;28;20432;-70
2022/10/20 03:44:30;;;;;;;9.35;6.97;;;11.50;90.30;;;;;;5054570;28;20420;-71
2022/10/20 03:46:58;;;;;;;7.72;6.93;;;11.50;90.10;;;;;;5050163;28;20413;-71
2022/10/20 03:49:25;;;;;;;8.13;6.70;;;11.50;90.00;;;;;;5050417;28;20437;-72
2022/10/20 03:51:52;;;;;;;7.78;7.07;;;11.50;90.10;;;;;;5052926;28;20417;-70
2022/10/20 03:54:20;;;;;;;7.57;6.50;;;11.50;89.70;;;;;;5049715;28;20421;-71
2022/10/20 03:56:47;;;;;;;8.52;7.40;;;11.50;89.80;;;;;;5058480;28;20429;-71
2022/10/20 03:59:14;;;;;;;7.22;6.63;;;11.50;90.10;;;;;;5063494;28;20416;-71
2022/10/20 04:01:45;;;;;;;7.53;6.40;;;11.50;90.00;;;;;;5049641;28;20413;-71
2022/10/20 04:04:12;;;;;;;9.48;6.70;;;11.50;90.00;;;;;;5048189;28;20429;-71
2022/10/20 04:06:39;;;;;;;7.80;6.55;;;11.50;89.70;;;;;;5049159;28;20429;-70
2022/10/20 04:09:05;;;;;;;8.10;7.40;;;11.50;89.70;;;;;;5049874;28;20413;-71
2022/10/20 04:11:34;;;;;;;7.10;6.40;;;11.50;89.00;;;;;;5063411;28;20809;-71
2022/10/20 04:14:01;;;;;;;6.90;6.30;;;11.50;88.80;;;;;;5044039;28;20762;-71
2022/10/20 04:16:28;;;;;;;7.63;6.82;;;11.50;88.90;;;;;;5043433;28;20421;-68
2022/10/20 04:18:55;;;;;;;7.13;6.43;;;11.50;90.00;;;;;;5053625;28;20800;-70
2022/10/20 04:21:22;;;;;;;8.48;7.10;;;11.50;88.80;;;;;;5049429;28;20420;-72
2022/10/20 04:23:49;;;;;;;6.95;6.35;;;11.50;88.50;;;;;;5047948;28;20425;-70
2022/10/20 04:26:16;;;;;;;9.85;7.18;;;11.50;88.30;;;;;;5048006;28;21029;-71
2022/10/20 04:28:44;;;;;;;8.07;6.90;;;11.50;88.30;;;;;;5049057;28;20800;-70
2022/10/20 04:31:11;;;;;;;9.30;7.05;;;11.60;87.80;;;;;;5063518;28;20821;-70
2022/10/20 04:33:38;;;;;;;7.23;6.40;;;11.60;87.70;;;;;;5052334;28;20538;-72
2022/10/20 04:36:07;;;;;;;8.43;7.00;;;11.60;87.90;;;;;;5054531;28;20440;-70
2022/10/20 04:38:34;;;;;;;7.03;6.30;;;11.60;88.40;;;;;;5048522;28;20417;-70
2022/10/20 04:41:04;;;;;;;7.90;6.47;;;11.60;87.40;;;;;;5049245;28;20424;-71
2022/10/20 04:43:31;;;;;;;7.50;6.70;;;11.60;87.50;;;;;;5048927;28;20425;-71
2022/10/20 04:46:02;;;;;;;7.30;6.60;;;11.60;87.50;;;;;;5050760;28;20425;-70
2022/10/20 04:48:28;;;;;;;6.78;6.10;;;11.60;87.30;;;;;;5057633;28;20440;-70
2022/10/20 04:51:03;;;;;;;7.68;6.70;;;11.60;86.80;;;;;;5048831;28;20801;-73
2022/10/20 04:53:30;;;;;;;7.35;6.45;;;11.70;87.00;;;;;;5047187;28;20496;-70
2022/10/20 04:55:58;;;;;;;8.60;6.60;;;11.70;86.40;;;;;;5049047;28;20827;-71
2022/10/20 04:58:25;;;;;;;7.32;6.72;;;11.70;86.40;;;;;;5057763;28;20451;-71
2022/10/20 05:00:53;;;;;;;8.10;6.10;;;11.70;86.20;;;;;;5047999;28;20428;-70
2022/10/20 05:03:21;;;;;;;7.00;6.30;;;11.70;86.40;;;;;;5047963;28;20433;-70
2022/10/20 05:05:48;;;;;;;7.97;6.50;;;11.70;86.60;;;;;;5049604;28;20467;-70
2022/10/20 05:08:15;;;;;;;8.57;6.90;;;11.70;86.30;;;;;;5049687;28;20413;-70
2022/10/20 05:10:42;;;;;;;7.55;6.85;;;11.70;86.60;;;;;;5048125;28;20429;-70
2022/10/20 05:13:09;;;;;;;8.18;7.18;;;11.70;86.70;;;;;;5048469;28;20427;-70
2022/10/20 05:15:35;;;;;;;7.82;7.03;;;11.70;86.70;;;;;;5046855;28;20448;-71
2022/10/20 05:18:02;;;;;;;7.65;6.60;;;11.70;86.80;;;;;;5047000;28;20444;-70
2022/10/20 05:20:30;;;;;;;7.25;6.55;;;11.70;86.60;;;;;;5042365;28;20760;-72
2022/10/20 05:22:57;;;;;;;7.73;6.80;;;11.60;86.70;;;;;;5047317;28;20425;-72
2022/10/20 05:25:24;;;;;;;7.32;6.63;;;11.60;87.10;;;;;;5038156;28;20414;-71
2022/10/20 05:27:50;;;;;;;7.20;6.50;;;11.60;87.00;;;;;;5046797;28;20460;-70
2022/10/20 05:30:17;;;;;;;7.45;6.63;;;11.60;86.60;;;;;;5046782;28;20457;-73
2022/10/20 05:32:45;;;;;;;7.53;6.70;;;11.60;86.70;;;;;;5048271;28;20425;-71
2022/10/20 05:35:12;;;;;;;7.53;6.87;;;11.60;86.80;;;;;;5047629;28;20954;-70
2022/10/20 05:37:41;;;;;;;7.40;6.70;;;11.60;86.50;;;;;;5053037;28;20425;-71
2022/10/20 05:40:09;;;;;;;7.97;6.30;;;11.60;86.70;;;;;;5048974;28;20879;-70
2022/10/20 05:42:36;;;;;;;6.70;6.10;;;11.60;87.80;;;;;;5043884;28;20820;-69
2022/10/20 05:45:03;;;;;;;8.07;6.63;;;11.60;86.90;;;;;;5046695;28;20433;-72
2022/10/20 05:47:30;;;;;;;7.70;6.50;;;11.60;87.20;;;;;;5049407;28;20428;-72
2022/10/20 05:49:56;;;;;;;10.60;6.70;;;11.60;87.00;;;;;;5046715;28;20444;-69
2022/10/20 05:52:23;;;;;;;7.40;6.70;;;11.60;87.10;;;;;;5048865;28;20428;-71
2022/10/20 05:54:51;;;;;;;7.28;6.57;;;11.60;87.00;;;;;;5047982;28;20907;-70
2022/10/20 05:57:18;;;;;;;7.57;6.88;;;11.60;86.90;;;;;;5047101;28;21483;-70
2022/10/20 05:59:46;;;;;;;9.05;7.20;;;11.60;87.10;;;;;;5044389;28;20796;-70
2022/10/20 06:02:13;;;;;;;7.85;7.10;;;11.60;88.10;;;;;;5046775;28;20421;-69
2022/10/20 06:04:40;;;;;;;8.55;6.90;;;11.60;87.50;;;;;;5046214;28;20438;-70
2022/10/20 06:07:08;;;;;;;7.60;6.90;;;11.60;87.10;;;;;;5047538;28;20443;-70
2022/10/20 06:09:36;;;;;;;7.72;7.03;;;11.60;87.40;;;;;;5037496;28;20417;-70
2022/10/20 06:12:05;;;;;;;7.07;6.50;;;11.60;87.20;;;;;;5046994;28;20455;-70
2022/10/20 06:14:33;;;;;;;7.50;6.65;;;11.60;87.20;;;;;;5046829;28;20903;-70
2022/10/20 06:17:00;;;;;;;7.40;6.70;;;11.60;87.20;;;;;;5049874;28;20954;-70
2022/10/20 06:19:27;;;;;;;7.40;6.70;;;11.60;87.00;;;;;;5046326;28;20449;-70
2022/10/20 06:21:54;;;;;;;7.60;6.90;;;11.60;87.30;;;;;;5047376;28;20970;-70
2022/10/20 06:24:20;;;;;;;7.10;6.50;;;11.60;87.30;;;;;;5046665;28;20424;-71
2022/10/20 06:26:47;;;;;;;8.00;7.20;;;11.60;87.00;;;;;;5045831;28;20979;-70
2022/10/20 06:29:17;;;;;;;8.02;7.03;;;11.60;87.30;;;;;;5046480;28;20422;-70
2022/10/20 06:31:46;;;;;;;8.80;7.53;;;11.60;87.10;;;;;;5047345;28;20429;-71
2022/10/20 06:34:15;;;;;;;7.90;7.10;;;11.60;87.30;;;;;;5034096;28;20451;-70
2022/10/20 06:36:42;;;;;;;7.78;7.07;;;11.60;87.50;;;;;;5051534;28;20432;-70
2022/10/20 06:39:13;;;;;;;7.70;7.00;;;11.60;87.70;;;;;;5045989;28;20440;-71
2022/10/20 06:41:40;;;;;;;7.57;6.93;;;11.60;87.50;;;;;;5049606;28;20421;-70
2022/10/20 06:44:07;;;;;;;7.70;7.00;;;11.60;87.60;;;;;;5045381;28;20520;-71
2022/10/20 06:46:36;;;;;;;8.00;7.30;;;11.60;87.70;;;;;;5045428;28;20437;-70
2022/10/20 06:49:04;;;;;;;7.40;6.80;;;11.70;87.60;;;;;;5045215;28;20468;-70
2022/10/20 06:51:32;;;;;;;7.60;6.85;;;11.70;87.80;;;;;;5046810;28;20444;-70
2022/10/20 06:53:59;;;;;;;7.97;7.18;;;11.70;88.10;;;;;;5046977;28;20428;-70
2022/10/20 06:56:28;;;;;;;8.90;8.00;;;11.70;87.80;;;;;;5047021;28;20423;-70
2022/10/20 06:58:56;;;;;;;8.35;7.55;;;11.70;87.90;;;;;;5047211;28;20888;-71
2022/10/20 07:01:25;;;;;;;7.93;7.23;;;11.70;88.00;;;;;;5044470;28;20425;-70
2022/10/20 07:03:54;;;;;;;8.47;7.57;;;11.70;87.90;;;;;;5051948;28;20968;-70
2022/10/20 07:06:23;;;;;;;7.73;7.00;;;11.70;87.70;;;;;;5046816;28;20432;-70
2022/10/20 07:08:52;;;;;;;8.80;7.90;;;11.80;87.90;;;;;;5046836;28;20421;-69
2022/10/20 07:11:21;;;;;;;9.70;7.95;;;11.80;87.90;;;;;;5046332;28;20461;-69
2022/10/20 07:13:48;;;;;;;8.00;7.30;;;11.80;87.90;;;;;;5046658;28;20412;-70
2022/10/20 07:16:17;;;;;;;8.90;8.00;;;11.80;87.80;;;;;;5048344;28;20417;-69
2022/10/20 07:18:43;;;;;;;8.00;7.30;;;11.80;87.90;;;;;;5049650;28;20935;-70
2022/10/20 07:21:14;;;;;;;8.13;7.43;;;11.80;87.90;;;;;;5051757;28;20783;-69
2022/10/20 07:23:41;;;;;;;8.60;7.80;;;11.90;87.90;;;;;;5059975;28;20428;-70
2022/10/20 07:26:11;;;;;;;9.20;8.18;;;11.90;87.70;;;;;;5048669;28;20429;-70
2022/10/20 07:28:41;;;;;;;9.55;7.78;;;11.90;87.60;;;;;;5050740;28;20814;-70
2022/10/20 07:31:11;;;;;;;8.80;8.00;;;11.90;88.00;;;;;;5048194;28;20425;-69
2022/10/20 07:33:37;;;;;;;10.10;8.00;;;11.90;87.80;;;;;;5051605;28;20882;-69
2022/10/20 07:36:16;;;;;;;8.80;8.00;;;11.90;88.00;;;;;;5051105;28;20420;-69
2022/10/20 07:38:43;;;;;;;9.32;8.43;;;11.90;88.00;;;;;;5063360;28;20427;-70
2022/10/20 07:41:10;;;;;;;8.95;8.20;;;12.00;87.60;;;;;;5050053;28;20428;-69
2022/10/20 07:43:38;;;;;;;9.20;8.30;;;12.00;87.90;;;;;;5063009;28;20415;-69
2022/10/20 07:46:05;;;;;;;8.70;7.90;;;12.10;87.60;;;;;;5048594;28;20500;-68
2022/10/20 07:48:32;;;;;;;9.48;8.68;;;12.10;87.60;;;;;;5049180;28;20428;-69
2022/10/20 07:51:16;;;;;;;9.10;8.30;;;12.10;87.40;;;;;;5048715;28;20440;-69
2022/10/20 07:53:44;;;;;;;9.52;8.50;;;12.10;87.00;;;;;;5049469;28;20427;-68
2022/10/20 07:56:11;;;;;;;8.75;7.95;;;12.20;86.90;;;;;;5050030;28;20417;-71
2022/10/20 07:58:38;;;;;;;9.00;8.20;;;12.20;86.60;;;;;;5049485;28;20425;-69
2022/10/20 08:01:05;;;;;;;8.70;8.00;;;12.30;86.30;;;;;;5046907;28;20448;-69
2022/10/20 08:03:32;;;;;;;9.18;7.50;;;12.30;85.80;;;;;;5051777;28;20429;-70
2022/10/20 08:05:59;;;;;;;8.70;7.90;;;12.30;85.90;;;;;;5049241;28;20421;-69
2022/10/20 08:08:27;;;;;;;8.70;7.75;;;12.30;85.80;;;;;;5054000;28;20929;-69
2022/10/20 08:10:54;;;;;;;10.80;8.63;;;12.30;85.50;;;;;;5041383;28;20528;-69
2022/10/20 08:13:21;;;;;;;8.90;7.93;;;12.30;86.00;;;;;;5049688;28;20425;-70
2022/10/20 08:15:48;;;;;;;9.00;8.10;;;12.40;85.70;;;;;;5048671;28;20436;-70
2022/10/20 08:18:15;;;;;;;8.77;7.90;;;12.40;85.30;;;;;;5049489;28;20815;-70
2022/10/20 08:20:41;;;;;;;8.87;8.07;;;12.40;85.50;;;;;;5049454;28;20424;-69
2022/10/20 08:23:08;;;;;;;9.00;8.10;;;12.40;85.30;;;;;;5049274;28;20437;-70
2022/10/20 08:25:36;;;;;;;8.90;8.05;;;12.40;85.40;;;;;;5047456;28;20923;-69
2022/10/20 08:28:03;;;;;;;9.48;8.68;;;12.40;86.00;;;;;;5048582;28;20413;-70
2022/10/20 08:30:30;;;;;;;8.93;8.15;;;12.40;85.10;;;;;;5048237;28;20911;-72
2022/10/20 08:32:57;;;;;;;9.00;7.95;;;12.50;85.10;;;;;;5047904;28;20429;-72
2022/10/20 08:35:25;;;;;;;10.85;7.88;;;12.50;84.80;;;;;;5060893;28;20894;-70
2022/10/20 08:37:51;;;;;;;9.55;8.13;;;12.50;84.70;;;;;;5061881;28;20888;-74
2022/10/20 08:40:22;;;;;;;9.40;8.50;;;12.50;84.60;;;;;;5047148;28;20429;-73
2022/10/20 08:42:50;;;;;;;9.10;8.30;;;12.50;84.60;;;;;;5047956;28;20433;-71
2022/10/20 08:45:19;;;;;;;9.52;8.70;;;12.50;85.10;;;;;;5047362;28;20510;-73
2022/10/20 08:47:47;;;;;;;8.88;7.72;;;12.50;84.50;;;;;;5050743;28;20440;-73
2022/10/20 08:50:17;;;;;;;9.63;8.63;;;12.60;84.30;;;;;;5045834;28;20413;-73
2022/10/20 08:52:45;;;;;;;8.95;8.05;;;12.50;84.90;;;;;;5052137;28;20439;-74
2022/10/20 08:55:20;;;;;;;9.40;8.50;;;12.50;84.70;;;;;;5050286;28;20433;-74
2022/10/20 08:57:49;;;;;;;9.10;8.30;;;12.50;85.10;;;;;;5055275;28;20421;-72
2022/10/20 09:00:19;;;;;;;9.13;8.32;;;12.60;84.60;;;;;;5050969;28;20444;-73
2022/10/20 09:02:47;;;;;;;9.77;8.98;;;12.50;85.00;;;;;;5048247;28;20421;-73
2022/10/20 09:05:15;;;;;;;9.82;8.82;;;12.50;85.20;;;;;;5052389;28;21071;-72
2022/10/20 09:07:42;;;;;;;10.00;9.10;;;12.40;85.60;;;;;;5056914;28;20421;-74
2022/10/20 09:10:26;;;;;;;9.43;8.52;;;12.50;85.80;;;;;;5048845;28;20429;-72
2022/10/20 09:12:54;;;;;;;8.90;8.10;;;12.50;85.80;;;;;;5047524;28;21495;-73
2022/10/20 09:15:22;;;;;;;9.43;8.53;;;12.50;85.70;;;;;;5047946;28;21089;-74
2022/10/20 09:17:53;;;;;;;8.52;7.80;;;12.60;86.60;;;;;;5047946;28;20440;-73
2022/10/20 09:20:24;;;;;;;8.90;8.10;;;12.60;85.10;;;;;;5048533;28;20425;-73
2022/10/20 09:22:51;;;;;;;10.43;8.30;;;12.70;84.80;;;;;;5048174;28;20422;-74
2022/10/20 09:25:24;;;;;;;9.13;8.27;;;12.60;85.50;;;;;;5048478;28;20433;-73
2022/10/20 09:27:51;;;;;;;9.32;8.52;;;12.70;86.20;;;;;;5047155;28;20532;-73
2022/10/20 09:30:22;;;;;;;10.43;8.73;;;12.70;85.60;;;;;;5048317;28;20417;-76
2022/10/20 09:32:49;;;;;;;10.85;9.75;;;12.70;85.60;;;;;;5061678;28;20440;-78
2022/10/20 09:35:21;;;;;;;9.63;8.82;;;12.70;85.70;;;;;;5048915;28;20425;-75
2022/10/20 09:37:59;;;;;;;10.05;8.90;;;12.70;85.70;;;;;;5046787;28;20460;-76
2022/10/20 09:40:27;;;;;;;10.20;9.20;;;12.70;86.50;;;;;;5048318;28;20448;-76
2022/10/20 09:42:56;;;;;;;10.15;9.25;;;12.70;86.90;;;;;;5047124;28;20820;-75
2022/10/20 09:45:28;;;;;;;10.15;9.23;;;12.80;87.10;;;;;;5050283;28;20417;-75
2022/10/20 09:47:59;;;;;;;9.60;8.70;;;12.80;87.90;;;;;;5051767;28;20458;-74
2022/10/20 09:50:30;;;;;;;10.32;8.82;;;12.90;87.10;;;;;;5049103;28;20417;-75
2022/10/20 09:52:59;;;;;;;9.20;8.50;;;12.90;86.60;;;;;;5049543;28;20449;-68
2022/10/20 09:55:28;;;;;;;9.97;9.07;;;12.90;87.20;;;;;;5047522;28;21175;-68
2022/10/20 09:57:57;;;;;;;9.97;9.07;;;13.00;86.00;;;;;;5046348;28;20433;-68
2022/10/20 10:00:28;;;;;;;9.75;8.85;;;12.90;86.80;;;;;;5047274;28;20779;-66
2022/10/20 10:03:09;;;;;;;9.80;9.00;;;12.90;87.60;;;;;;5047273;28;20827;-67
2022/10/20 10:05:36;;;;;;;11.45;9.90;;;12.80;89.10;;;;;;5046761;28;20409;-67
2022/10/20 10:08:03;;;;;;;11.65;10.65;;;12.80;90.60;;;;;;5047356;28;20421;-67
2022/10/20 10:10:31;;;;;;;11.02;9.93;;;12.70;91.60;;;;;;5047420;28;21223;-67
2022/10/20 10:13:01;;;;;;;11.32;10.30;;;12.60;91.80;;;;;;5044805;28;20433;-66
2022/10/20 10:15:31;;;;;;;11.27;10.30;;;12.60;92.10;;;;;;5046842;28;20441;-67
2022/10/20 10:17:59;;;;;;;11.32;10.25;;;12.60;91.90;;;;;;5047447;28;20425;-74
2022/10/20 10:20:33;;;;;;;12.90;11.60;;;12.60;91.90;;;;;;5050255;28;20521;-76
2022/10/20 10:23:21;;;;;;;11.30;10.30;;;12.60;92.00;;;;;;5047205;28;20878;-75
2022/10/20 10:25:48;;;;;;;11.65;10.65;;;12.60;91.80;;;;;;5048366;28;20428;-74
2022/10/20 10:28:30;;;;;;;11.57;10.57;;;12.50;92.00;;;;;;5055973;28;20433;-76
2022/10/20 10:31:20;;;;;;;12.68;11.48;;;12.60;92.10;;;;;;5047483;28;20462;-77
2022/10/20 10:33:50;;;;;;;12.10;11.00;;;12.60;92.70;;;;;;5061358;28;20774;-76
2022/10/20 10:36:33;;;;;;;13.75;12.45;;;12.50;92.60;;;;;;5077674;22;20438;-73
2022/10/20 10:39:01;;;;;;;13.60;12.30;;;12.50;93.20;;;;;;5090842;28;20508;-73
2022/10/20 10:41:47;;;;;;;13.25;11.95;;;12.50;93.50;;;;;;5087198;28;20422;-73
2022/10/20 10:44:21;;;;;;;14.15;12.75;;;12.50;93.90;;;;;;5083394;28;20431;-73
2022/10/20 10:47:01;;;;;;;13.80;12.50;;;12.40;94.30;;;;;;5093038;28;20445;-74
2022/10/20 10:49:40;;;;;;;14.85;13.35;;;12.50;94.80;;;;;;5087222;28;20496;-73
2022/10/20 10:52:23;;;;;;;14.30;12.90;;;12.40;95.10;;;;;;5086414;28;21144;-73
2022/10/20 10:55:00;;;;;;;14.70;13.35;;;12.40;94.80;;;;;;5079394;28;20446;-73
2022/10/20 10:57:31;;;;;;;15.17;13.77;;;12.40;95.10;;;;;;5090675;28;20429;-75
2022/10/20 11:00:01;;;;;;;15.15;13.75;;;12.40;95.30;;;;;;5091976;28;20418;-73
2022/10/20 11:03:00;;;;;;;15.18;13.85;;;12.40;95.70;;;;;;5090746;28;20429;-73
2022/10/20 11:06:06;;;;;;;15.13;13.70;;;12.40;95.60;;;;;;5083732;28;20912;-73
2022/10/20 11:08:43;;;;;;;15.40;13.93;;;12.30;95.70;;;;;;5090281;28;20424;-73
2022/10/20 11:11:23;;;;;;;15.38;13.98;;;12.30;95.90;;;;;;5093628;28;20815;-73
2022/10/20 11:14:10;;;;;;;16.10;14.60;;;12.30;95.90;;;;;;5090349;28;20430;-73
2022/10/20 11:16:44;;;;;;;16.27;14.80;;;12.30;96.40;;;;;;5091641;28;21156;-74
2022/10/20 11:19:24;;;;;;;17.45;15.95;;;12.30;96.60;;;;;;5091253;28;20414;-74
2022/10/20 11:22:02;;;;;;;16.98;15.48;;;12.20;96.90;;;;;;5079310;28;20406;-73
2022/10/20 11:24:42;;;;;;;17.58;15.98;;;12.20;97.10;;;;;;5087447;28;21021;-74
2022/10/20 11:27:13;;;;;;;17.38;15.77;;;12.20;97.30;;;;;;5090966;28;20923;-74
2022/10/20 11:29:44;;;;;;;17.30;15.70;;;12.20;97.60;;;;;;5082339;28;20436;-74
2022/10/20 11:32:21;;;;;;;17.73;16.03;;;12.20;97.50;;;;;;5089444;28;20436;-72
2022/10/20 11:35:00;;;;;;;17.25;15.57;;;12.10;97.70;;;;;;5087576;28;20406;-74
2022/10/20 11:37:30;;;;;;;18.90;17.00;;;12.10;98.10;;;;;;5087816;28;20426;-74
2022/10/20 11:40:03;;;;;;;19.67;17.67;;;12.10;98.30;;;;;;5095577;28;20422;-74
2022/10/20 11:42:37;;;;;;;18.90;17.20;;;12.00;98.30;;;;;;5092106;28;20515;-74
2022/10/20 11:45:15;;;;;;;19.85;17.90;;;12.00;98.50;;;;;;5080878;28;20825;-73
2022/10/20 11:47:45;;;;;;;19.60;17.70;;;12.00;98.80;;;;;;5086389;28;20418;-72
2022/10/20 11:50:19;;;;;;;21.40;19.10;;;12.00;99.00;;;;;;5096146;28;20470;-72
2022/10/20 11:53:03;;;;;;;20.55;18.67;;;12.00;99.30;;;;;;5089686;28;20426;-66
2022/10/20 11:55:51;;;;;;;20.07;17.97;;;12.00;99.50;;;;;;5090429;28;21011;-68
2022/10/20 11:58:38;;;;;;;20.17;18.25;;;12.00;99.60;;;;;;5089081;28;20435;-66
2022/10/20 12:01:23;;;;;;;22.30;20.30;;;12.00;99.60;;;;;;5091835;28;20434;-65
2022/10/20 12:04:25;;;;;;;23.00;20.75;;;11.90;99.70;;;;;;5087901;28;20422;-67
2022/10/20 12:07:13;;;;;;;22.70;20.10;;;11.90;99.70;;;;;;5075009;28;20442;-67
2022/10/20 12:10:03;;;;;;;23.40;21.20;;;12.00;99.90;;;;;;5087805;28;20428;-67
2022/10/20 12:12:35;;;;;;;22.92;20.73;;;12.00;99.90;;;;;;5088042;28;20514;-66
2022/10/20 12:15:04;;;;;;;22.83;20.73;;;12.00;99.90;;;;;;5092773;28;20425;-66
2022/10/20 12:17:35;;;;;;;23.75;21.45;;;12.00;99.90;;;;;;5098354;28;20524;-66
2022/10/20 12:20:39;;;;;;;23.88;21.67;;;12.00;99.90;;;;;;5077312;28;20506;-67
2022/10/20 12:23:48;;;;;;;25.05;22.70;;;12.00;99.90;;;;;;5089069;28;20406;-68
2022/10/20 12:26:38;;;;;;;25.60;23.20;;;12.00;99.90;;;;;;5088106;28;20417;-67
2022/10/20 12:29:46;;;;;;;24.55;22.02;;;12.00;99.90;;;;;;5093756;28;20473;-67
2022/10/20 12:32:53;;;;;;;23.83;21.52;;;12.10;99.90;;;;;;5086526;28;20412;-67
2022/10/20 12:36:02;;;;;;;23.92;21.73;;;12.10;99.90;;;;;;5087957;28;20485;-67
2022/10/20 12:38:32;;;;;;;24.80;22.50;;;12.10;99.90;;;;;;5083424;28;20788;-67
2022/10/20 12:41:01;;;;;;;23.80;21.60;;;12.10;99.90;;;;;;5089479;28;20887;-70
2022/10/20 12:43:35;;;;;;;22.70;20.40;;;12.10;99.90;;;;;;5088333;28;20422;-69
2022/10/20 12:46:09;;;;;;;23.92;21.52;;;12.10;99.90;;;;;;5088205;28;20410;-70
2022/10/20 12:48:48;;;;;;;22.98;21.05;;;12.20;99.90;;;;;;5090097;28;20426;-69
2022/10/20 12:51:24;;;;;;;23.17;21.08;;;12.20;99.90;;;;;;5089863;28;20422;-70
2022/10/20 12:53:56;;;;;;;22.85;20.65;;;12.30;99.90;;;;;;5088732;28;20426;-71
2022/10/20 12:56:25;;;;;;;23.98;21.77;;;12.30;99.90;;;;;;5090303;28;20699;-68
2022/10/20 12:59:24;;;;;;;23.10;20.98;;;12.30;99.90;;;;;;5093393;28;20438;-68
2022/10/20 13:02:40;;;;;;;22.67;20.65;;;12.40;99.90;;;;;;5076058;28;20927;-69
2022/10/20 13:05:28;;;;;;;21.63;19.73;;;12.40;99.90;;;;;;5093297;28;20434;-69